Time;durP1;ratioP1;P1;durP2;ratioP2;P2;SDS_P1;SDS_P2;PMS_P1;PMS_P2;Temp;Humidity;BMP_temperature;BMP_pressure;BME280_temperature;BME280_humidity;BME280_pressure;Samples;Min_cycle;Max_cycle;Signal;HPM_P1;HPM_P2
2023/04/17 00:09:42;;;;;;;33.43;14.17;;;7.60;99.90;;;;;;20772911;28;20034;-78
2023/04/17 00:19:43;;;;;;;34.93;14.30;;;7.60;99.90;;;;;;20776140;28;20030;-78
2023/04/17 00:29:44;;;;;;;41.77;15.97;;;7.60;99.90;;;;;;20774561;28;20141;-78
2023/04/17 00:39:45;;;;;;;36.05;15.00;;;7.60;99.90;;;;;;20776357;28;20034;-78
2023/04/17 00:49:46;;;;;;;37.58;15.85;;;7.60;99.90;;;;;;20771914;28;20044;-78
2023/04/17 00:59:47;;;;;;;30.00;14.60;;;7.60;99.90;;;;;;20784846;28;20036;-78
2023/04/17 01:09:48;;;;;;;37.42;15.80;;;7.60;99.90;;;;;;20775023;28;20062;-79
2023/04/17 01:19:49;;;;;;;30.43;14.53;;;7.70;99.90;;;;;;20784869;28;20052;-78
2023/04/17 01:29:50;;;;;;;36.00;16.27;;;7.70;99.90;;;;;;20777711;28;20032;-78
2023/04/17 01:39:52;;;;;;;33.00;14.60;;;7.60;99.90;;;;;;20777836;28;20440;-78
2023/04/17 01:49:53;;;;;;;;;;;7.70;99.90;;;;;;20781447;28;20532;-78
2023/04/17 01:59:54;;;;;;;36.33;15.37;;;7.70;99.90;;;;;;20781854;28;19983;-78
2023/04/17 02:09:55;;;;;;;31.65;14.25;;;7.70;99.90;;;;;;20782473;28;20808;-78
2023/04/17 02:19:56;;;;;;;29.80;14.30;;;7.70;99.90;;;;;;20773428;28;20034;-78
2023/04/17 02:29:57;;;;;;;31.03;13.43;;;7.70;99.90;;;;;;20774242;28;20043;-79
2023/04/17 02:39:57;;;;;;;32.23;14.20;;;7.70;99.90;;;;;;20773662;28;20034;-78
2023/04/17 02:50:01;;;;;;;31.57;13.57;;;7.70;99.90;;;;;;20769416;28;20062;-78
2023/04/17 03:00:07;;;;;;;24.02;12.93;;;7.70;99.90;;;;;;20760361;28;20022;-78
2023/04/17 03:10:09;;;;;;;26.67;11.98;;;7.60;99.90;;;;;;20759885;28;20038;-78
2023/04/17 03:20:10;;;;;;;24.13;12.13;;;7.70;99.90;;;;;;20753748;28;20042;-77
2023/04/17 03:30:11;;;;;;;26.48;12.07;;;7.60;99.90;;;;;;20757287;28;20030;-77
2023/04/17 03:40:13;;;;;;;23.42;10.50;;;7.60;99.90;;;;;;20771426;28;20400;-77
2023/04/17 03:50:14;;;;;;;22.17;11.20;;;7.70;99.90;;;;;;20777466;28;20038;-79
2023/04/17 04:00:22;;;;;;;23.48;11.00;;;7.70;99.90;;;;;;20773564;28;20352;-80
2023/04/17 04:10:28;;;;;;;29.67;11.30;;;7.70;99.90;;;;;;20781438;28;20041;-80
2023/04/17 04:20:31;;;;;;;32.40;14.15;;;7.70;99.90;;;;;;20776065;28;20037;-80
2023/04/17 04:30:49;;;;;;;24.35;12.27;;;7.70;99.90;;;;;;20788464;28;20064;-81
2023/04/17 04:40:51;;;;;;;26.27;12.35;;;7.70;99.90;;;;;;20789310;28;20102;-81
2023/04/17 04:50:53;;;;;;;33.08;14.25;;;7.70;99.90;;;;;;20788137;28;20037;-81
2023/04/17 05:00:54;;;;;;;;;;;7.60;99.90;;;;;;20796306;28;20042;-80
2023/04/17 05:11:03;;;;;;;29.38;11.25;;;7.70;99.90;;;;;;20799805;28;19913;-81
2023/04/17 05:21:04;;;;;;;28.45;12.02;;;7.70;99.90;;;;;;20782021;28;20528;-81
2023/04/17 05:31:05;;;;;;;29.83;13.60;;;7.70;99.90;;;;;;20778226;28;20026;-80
2023/04/17 05:41:11;;;;;;;30.27;13.98;;;7.70;99.90;;;;;;20771871;28;20057;-79
2023/04/17 05:51:12;;;;;;;45.33;16.93;;;7.80;99.90;;;;;;20779007;28;20073;-78
2023/04/17 06:01:16;;;;;;;43.85;17.85;;;7.80;99.90;;;;;;20783308;28;20296;-79
2023/04/17 06:11:17;;;;;;;50.58;19.38;;;7.90;99.90;;;;;;20783921;28;20034;-79
2023/04/17 06:21:20;;;;;;;59.53;22.77;;;8.00;99.90;;;;;;20784398;28;20034;-79
2023/04/17 06:31:20;;;;;;;49.65;20.77;;;8.30;99.90;;;;;;20786240;28;20038;-79
2023/04/17 06:41:22;;;;;;;51.47;20.08;;;8.30;99.90;;;;;;20784273;28;20041;-79
2023/04/17 06:51:24;;;;;;;52.33;20.38;;;8.30;99.90;;;;;;20782471;28;20026;-78
2023/04/17 07:01:26;;;;;;;46.00;19.23;;;8.30;99.90;;;;;;20778661;28;20041;-79
2023/04/17 07:11:27;;;;;;;51.67;19.70;;;8.30;99.90;;;;;;20778856;28;20040;-80
2023/04/17 07:21:28;;;;;;;;;;;8.60;99.90;;;;;;20779049;28;20041;-79
2023/04/17 07:31:29;;;;;;;47.63;19.90;;;8.90;99.90;;;;;;20783429;28;20352;-79
2023/04/17 07:41:31;;;;;;;38.00;16.80;;;9.00;99.90;;;;;;20773796;28;20222;-79
2023/04/17 07:51:31;;;;;;;37.97;15.43;;;9.20;99.90;;;;;;20773244;28;20098;-79
2023/04/17 08:01:32;;;;;;;32.90;15.07;;;9.20;99.90;;;;;;20776666;28;20033;-79
2023/04/17 08:11:33;;;;;;;30.03;15.30;;;9.50;99.90;;;;;;20771976;28;20034;-79
2023/04/17 08:21:34;;;;;;;24.80;11.23;;;9.80;99.90;;;;;;20789995;28;20037;-79
2023/04/17 08:31:35;;;;;;;19.33;9.10;;;10.10;99.90;;;;;;20787664;28;20061;-79
2023/04/17 08:41:50;;;;;;;15.50;7.47;;;10.20;99.90;;;;;;20789605;28;20469;-79
2023/04/17 08:51:50;;;;;;;21.65;7.80;;;10.20;99.90;;;;;;20791825;28;20500;-79
2023/04/17 09:02:02;;;;;;;15.27;7.23;;;10.40;99.90;;;;;;20789226;28;20181;-79
2023/04/17 09:12:09;;;;;;;;;;;10.10;99.90;;;;;;20786816;28;20030;-79
2023/04/17 09:22:21;;;;;;;9.55;4.00;;;10.00;99.90;;;;;;20786498;28;20197;-79
2023/04/17 09:32:22;;;;;;;5.97;2.78;;;11.80;99.90;;;;;;20784864;28;20036;-79
2023/04/17 09:42:23;;;;;;;5.13;1.80;;;14.20;99.90;;;;;;20774025;28;20469;-79
2023/04/17 09:52:24;;;;;;;2.73;1.87;;;15.20;99.90;;;;;;20782631;28;20057;-79
2023/04/17 10:02:26;;;;;;;2.50;1.88;;;13.50;99.90;;;;;;20786107;28;20036;-77
2023/04/17 10:12:27;;;;;;;4.32;1.92;;;12.20;99.90;;;;;;20791637;28;20045;-78
2023/04/17 10:22:28;;;;;;;3.73;1.93;;;11.30;99.90;;;;;;20791670;28;20029;-79
2023/04/17 10:32:31;;;;;;;4.65;2.35;;;11.60;99.90;;;;;;20773936;28;20097;-78
2023/04/17 10:42:32;;;;;;;3.20;2.38;;;12.60;99.90;;;;;;20792371;28;20052;-80
2023/04/17 10:52:40;;;;;;;4.33;2.27;;;14.30;99.90;;;;;;20788989;28;20034;-80
2023/04/17 11:02:49;;;;;;;9.57;1.73;;;15.70;99.90;;;;;;20783393;28;20097;-79
2023/04/17 11:12:55;;;;;;;1.75;1.42;;;15.20;99.90;;;;;;20775481;28;20037;-79
2023/04/17 11:23:03;;;;;;;1.98;1.20;;;13.80;99.90;;;;;;20783062;28;20040;-78
2023/04/17 11:33:06;;;;;;;1.92;1.23;;;15.00;99.90;;;;;;20779939;28;20073;-79
2023/04/17 11:43:08;;;;;;;1.10;0.98;;;16.10;99.90;;;;;;20776261;28;20053;-80
2023/04/17 11:53:11;;;;;;;;;;;16.00;99.90;;;;;;20800964;28;20038;-79
2023/04/17 12:03:33;;;;;;;1.17;1.00;;;17.90;99.90;;;;;;20793447;28;19963;-78
2023/04/17 12:13:34;;;;;;;45.97;18.80;;;17.50;99.90;;;;;;20792895;28;20168;-79
2023/04/17 12:23:35;;;;;;;1.40;1.10;;;17.30;99.90;;;;;;20789954;28;20038;-78
2023/04/17 12:33:36;;;;;;;2.72;2.22;;;15.10;99.90;;;;;;20785993;28;20042;-79
2023/04/17 12:43:37;;;;;;;2.90;0.90;;;14.60;99.90;;;;;;20770712;28;20036;-78
2023/04/17 12:53:37;;;;;;;1.37;1.23;;;15.00;99.90;;;;;;20785226;28;20041;-80
2023/04/17 13:03:38;;;;;;;3.20;2.17;;;16.50;99.90;;;;;;20765286;28;20038;-81
2023/04/17 13:13:39;;;;;;;1.70;1.27;;;18.40;99.90;;;;;;20788095;28;20033;-78
2023/04/17 13:23:40;;;;;;;3.80;1.13;;;18.00;99.90;;;;;;20753160;28;20523;-79
2023/04/17 13:33:40;;;;;;;1.37;0.80;;;15.50;99.90;;;;;;20780332;28;20065;-79
2023/04/17 13:43:41;;;;;;;2.07;0.93;;;14.10;99.90;;;;;;20784145;28;20464;-78
2023/04/17 13:53:42;;;;;;;1.17;0.90;;;14.40;99.90;;;;;;20788582;28;20034;-78
2023/04/17 14:03:43;;;;;;;3.10;2.33;;;15.00;99.90;;;;;;20782711;28;20393;-79
2023/04/17 14:13:44;;;;;;;2.50;2.03;;;12.50;99.90;;;;;;20778327;28;20021;-80
2023/04/17 14:23:44;;;;;;;3.37;1.83;;;12.20;99.90;;;;;;20803202;28;20083;-80
2023/04/17 14:33:45;;;;;;;2.07;1.40;;;14.80;99.90;;;;;;20773873;28;20029;-78
2023/04/17 14:43:46;;;;;;;2.60;1.70;;;14.40;99.90;;;;;;20818920;28;20021;-80
2023/04/17 14:53:47;;;;;;;2.90;2.00;;;12.50;99.90;;;;;;20783827;28;20093;-80
2023/04/17 15:03:47;;;;;;;2.70;1.73;;;12.10;99.90;;;;;;20777121;28;20034;-79
2023/04/17 15:13:48;;;;;;;5.17;2.70;;;12.00;99.90;;;;;;20814866;28;20453;-79
2023/04/17 15:23:49;;;;;;;2.07;1.40;;;11.80;99.90;;;;;;20768937;28;20037;-79
2023/04/17 15:33:50;;;;;;;1.80;1.20;;;11.50;99.90;;;;;;20770680;28;20072;-78
2023/04/17 15:43:51;;;;;;;2.27;1.30;;;11.60;99.90;;;;;;20761443;28;20087;-78
2023/04/17 15:53:51;;;;;;;1.20;1.00;;;12.70;99.90;;;;;;20772613;28;20477;-79
2023/04/17 16:03:52;;;;;;;1.63;1.20;;;12.40;99.90;;;;;;20772828;28;20083;-78
2023/04/17 16:13:53;;;;;;;1.13;0.93;;;12.10;99.90;;;;;;20773775;28;20037;-79
2023/04/17 16:23:56;;;;;;;2.67;1.00;;;10.80;99.90;;;;;;20765725;28;20030;-79
2023/04/17 16:33:56;;;;;;;1.30;1.13;;;10.40;99.90;;;;;;20768407;28;20037;-79
2023/04/17 16:43:57;;;;;;;1.53;1.27;;;9.90;99.90;;;;;;20779196;28;20033;-80
2023/04/17 16:53:58;;;;;;;1.53;1.07;;;9.90;99.90;;;;;;20767889;28;20072;-79
2023/04/17 17:03:59;;;;;;;2.20;1.13;;;10.00;99.90;;;;;;20774402;28;20092;-79
2023/04/17 17:14:00;;;;;;;2.30;1.60;;;10.30;99.90;;;;;;20764094;28;20441;-78
2023/04/17 17:24:01;;;;;;;2.37;1.30;;;10.30;99.90;;;;;;20758472;28;20096;-78
2023/04/17 17:34:02;;;;;;;1.60;1.20;;;9.80;99.90;;;;;;20767112;28;20079;-79
2023/04/17 17:44:02;;;;;;;2.00;1.20;;;9.70;99.90;;;;;;20770484;28;20058;-79
2023/04/17 17:54:03;;;;;;;6.13;1.37;;;9.70;99.90;;;;;;20777822;28;20041;-79
2023/04/17 18:04:04;;;;;;;1.27;1.07;;;9.60;99.90;;;;;;20773998;28;20272;-79
2023/04/17 18:14:05;;;;;;;1.27;1.10;;;9.40;99.90;;;;;;20769655;28;20038;-78
2023/04/17 18:24:06;;;;;;;2.78;1.40;;;9.40;99.90;;;;;;20795177;28;20033;-79
2023/04/17 18:34:07;;;;;;;3.33;0.95;;;9.20;99.90;;;;;;20850319;28;20026;-78
2023/04/17 18:44:08;;;;;;;0.98;0.90;;;8.90;99.90;;;;;;20806323;28;20396;-77
2023/04/17 18:54:09;;;;;;;1.30;1.00;;;8.90;99.90;;;;;;20768928;28;20040;-79
2023/04/17 19:04:10;;;;;;;1.10;1.00;;;8.80;99.90;;;;;;20774865;28;20026;-79
2023/04/17 19:14:10;;;;;;;2.00;1.33;;;8.70;99.90;;;;;;20771328;28;20120;-78
2023/04/17 19:24:11;;;;;;;1.70;1.10;;;8.60;99.90;;;;;;20766244;28;20037;-78
2023/04/17 19:34:12;;;;;;;2.50;1.30;;;8.50;99.90;;;;;;20768132;28;20392;-78
2023/04/17 19:44:13;;;;;;;2.27;1.30;;;8.40;99.90;;;;;;20758247;28;20561;-78
2023/04/17 19:54:14;;;;;;;1.70;1.40;;;8.30;99.90;;;;;;20750473;28;20047;-78
2023/04/17 20:04:15;;;;;;;2.00;1.38;;;8.20;99.90;;;;;;20751467;28;20524;-78
2023/04/17 20:14:18;;;;;;;2.17;1.70;;;8.30;99.90;;;;;;20751001;28;20068;-78
2023/04/17 20:24:19;;;;;;;3.00;1.98;;;8.00;99.90;;;;;;20770503;28;20108;-78
2023/04/17 20:34:19;;;;;;;4.10;2.70;;;7.90;99.90;;;;;;20777997;28;20034;-78
2023/04/17 20:44:21;;;;;;;4.83;3.10;;;7.90;99.90;;;;;;20754988;28;20489;-77
2023/04/17 20:54:22;;;;;;;6.70;3.60;;;7.90;99.90;;;;;;20754571;28;20040;-78
2023/04/17 21:04:23;;;;;;;6.63;3.38;;;7.80;99.90;;;;;;20755062;28;20034;-78
2023/04/17 21:14:23;;;;;;;4.43;3.23;;;7.60;99.90;;;;;;20754434;28;20447;-77
2023/04/17 21:24:24;;;;;;;5.70;3.73;;;7.40;99.90;;;;;;20754206;28;20033;-78
2023/04/17 21:34:25;;;;;;;6.70;4.00;;;6.90;99.90;;;;;;20755152;28;20120;-77
2023/04/17 21:44:27;;;;;;;7.93;4.60;;;6.90;99.90;;;;;;20755778;28;20057;-77
2023/04/17 21:54:27;;;;;;;9.07;4.97;;;7.10;99.90;;;;;;20756106;28;20285;-77
2023/04/17 22:04:28;;;;;;;9.17;4.57;;;7.30;99.90;;;;;;20758187;28;20041;-77
2023/04/17 22:14:29;;;;;;;6.60;4.05;;;7.50;99.90;;;;;;20761986;28;20025;-78
2023/04/17 22:24:30;;;;;;;6.10;3.37;;;7.50;99.90;;;;;;20762459;28;20061;-77
2023/04/17 22:34:31;;;;;;;5.80;3.85;;;7.30;99.90;;;;;;20757363;28;20032;-78
2023/04/17 22:44:32;;;;;;;5.70;4.03;;;6.90;99.90;;;;;;20753375;28;20547;-78
2023/04/17 22:54:33;;;;;;;5.65;3.65;;;7.20;99.90;;;;;;20754676;28;20037;-77
2023/04/17 23:04:33;;;;;;;4.93;3.13;;;7.60;99.90;;;;;;20750044;28;20037;-77
2023/04/17 23:14:34;;;;;;;6.87;4.10;;;7.60;99.90;;;;;;20752288;28;20094;-78
2023/04/17 23:24:35;;;;;;;4.18;3.05;;;7.70;99.90;;;;;;20754421;28;20030;-78
2023/04/17 23:34:36;;;;;;;6.80;3.67;;;7.70;99.90;;;;;;20743067;28;20093;-78
2023/04/17 23:44:37;;;;;;;3.58;2.70;;;7.70;99.90;;;;;;20727454;28;20038;-77
2023/04/17 23:54:38;;;;;;;4.70;2.70;;;7.90;99.90;;;;;;20756600;28;20521;-78
